Aviation Digital Data Service (ADDS)

Output produced by METARs form (1237 UTC 15 November 2018)
found at http://www.aviationweather.gov/metar/data/
 
FXMM 151200Z 33012KT 9999 BKN035 FEW040CB 32/04 Q1023 NOSIG
TAF FXMM 150900Z 1512/1612 36005KT 9999 FEW040 
     BECMG 1512/1514 34012KT SCT040 FEW045TCU 
     FM151500 00000KT //// FEW040 
     FM152000 06005KT CAVOK 
     BECMG 1606/1608 34008KT 
     FM160900 30010KT 9999 FEW040 SCT///